createdAt,value
2023-03-07T00:00:16.449Z,100.00
2023-03-07T00:02:44.296Z,100.00
2023-03-07T00:05:12.579Z,100.00
2023-03-07T00:07:39.673Z,100.00
2023-03-07T00:10:07.226Z,100.00
2023-03-07T00:12:34.552Z,100.00
2023-03-07T00:15:01.780Z,100.00
2023-03-07T00:17:29.013Z,100.00
2023-03-07T00:19:56.231Z,100.00
2023-03-07T00:22:23.586Z,100.00
2023-03-07T00:24:50.614Z,100.00
2023-03-07T00:27:17.912Z,100.00
2023-03-07T00:29:45.207Z,100.00
2023-03-07T00:32:12.262Z,100.00
2023-03-07T00:34:39.587Z,100.00
2023-03-07T00:37:06.641Z,100.00
2023-03-07T00:42:01.039Z,100.00
2023-03-07T00:44:30.332Z,100.00
2023-03-07T00:46:57.583Z,100.00
2023-03-07T00:49:24.816Z,100.00
2023-03-07T00:51:52.359Z,100.00
2023-03-07T00:54:19.597Z,100.00
2023-03-07T00:56:46.922Z,100.00
2023-03-07T00:59:15.382Z,100.00
2023-03-07T01:01:42.982Z,100.00
2023-03-07T01:04:10.776Z,100.00
2023-03-07T01:06:38.260Z,100.00
2023-03-07T01:09:08.563Z,100.00
2023-03-07T01:11:37.460Z,100.00
2023-03-07T01:14:06.630Z,100.00
2023-03-07T01:16:38.150Z,100.00
2023-03-07T01:19:08.745Z,100.00
2023-03-07T01:21:38.589Z,100.00
2023-03-07T01:24:07.788Z,100.00
2023-03-07T01:26:35.431Z,100.00
2023-03-07T01:29:05.515Z,100.00
2023-03-07T01:31:35.674Z,100.00
2023-03-07T01:34:03.864Z,100.00
2023-03-07T01:36:35.229Z,100.00
2023-03-07T01:39:17.142Z,100.00
2023-03-07T01:41:51.543Z,100.00
2023-03-07T01:44:25.951Z,100.00
2023-03-07T01:47:00.695Z,100.00
2023-03-07T01:49:41.078Z,100.00
2023-03-07T01:52:21.216Z,100.00
2023-03-07T01:54:58.757Z,100.00
2023-03-07T01:57:33.797Z,100.00
2023-03-07T02:00:08.403Z,100.00
2023-03-07T02:02:44.175Z,100.00
2023-03-07T02:05:22.443Z,100.00
2023-03-07T02:07:51.207Z,100.00
2023-03-07T02:10:23.618Z,100.00
2023-03-07T02:12:53.568Z,100.00
2023-03-07T02:15:21.152Z,100.00
2023-03-07T02:17:48.715Z,100.00
2023-03-07T02:20:42.731Z,100.00
2023-03-07T02:23:37.111Z,100.00
2023-03-07T02:26:13.959Z,100.00
2023-03-07T02:28:42.877Z,100.00
2023-03-07T02:31:11.901Z,100.00
2023-03-07T02:33:40.553Z,100.00
2023-03-07T02:36:15.180Z,100.00
2023-03-07T02:38:51.284Z,100.00
2023-03-07T02:41:22.696Z,99.76
2023-03-07T02:43:50.672Z,99.84
2023-03-07T02:46:18.068Z,99.93
2023-03-07T02:48:45.284Z,100.00
2023-03-07T02:51:14.014Z,100.00
2023-03-07T02:53:43.092Z,100.00
2023-03-07T02:56:10.257Z,100.00
2023-03-07T02:58:37.491Z,100.00
2023-03-07T03:01:04.633Z,100.00
2023-03-07T03:03:31.680Z,100.00
2023-03-07T03:05:58.579Z,100.00
2023-03-07T03:08:25.794Z,100.00
2023-03-07T03:10:54.698Z,100.00
2023-03-07T03:13:24.312Z,100.00
2023-03-07T03:15:57.064Z,100.00
2023-03-07T03:18:27.621Z,99.95
2023-03-07T03:20:54.875Z,99.95
2023-03-07T03:23:22.425Z,99.83
2023-03-07T03:26:01.295Z,99.61
2023-03-07T03:28:32.069Z,99.52
2023-03-07T03:31:02.027Z,99.15
2023-03-07T03:33:31.067Z,98.27
2023-03-07T03:36:00.344Z,98.07
2023-03-07T03:38:27.977Z,98.39
2023-03-07T03:40:56.549Z,97.93
2023-03-07T03:43:23.536Z,97.42
2023-03-07T03:45:55.610Z,96.94
2023-03-07T03:48:24.844Z,96.30
2023-03-07T03:50:59.886Z,95.82
2023-03-07T03:53:27.115Z,95.75
2023-03-07T03:56:08.528Z,94.97
2023-03-07T03:58:36.222Z,94.75
2023-03-07T04:01:05.956Z,94.54
2023-03-07T04:03:34.426Z,94.63
2023-03-07T04:06:03.501Z,94.22
2023-03-07T04:08:32.066Z,94.04
2023-03-07T04:10:59.780Z,93.35
2023-03-07T04:13:27.340Z,93.17
2023-03-07T04:15:54.914Z,93.05
2023-03-07T04:18:23.209Z,92.88
2023-03-07T04:20:51.966Z,92.81
2023-03-07T04:23:21.933Z,92.67
2023-03-07T04:25:50.217Z,92.17
2023-03-07T04:28:19.050Z,91.87
2023-03-07T04:30:46.287Z,91.19
2023-03-07T04:33:15.583Z,90.83
2023-03-07T04:35:43.316Z,90.75
2023-03-07T04:38:11.111Z,90.31
2023-03-07T04:40:38.454Z,90.97
2023-03-07T04:43:06.450Z,91.64
2023-03-07T04:45:37.466Z,91.74
2023-03-07T04:48:05.052Z,92.11
2023-03-07T04:50:34.196Z,92.35
2023-03-07T04:53:01.441Z,92.02
2023-03-07T04:55:28.745Z,92.31
2023-03-07T04:57:57.760Z,91.86
2023-03-07T05:00:25.596Z,91.95
2023-03-07T05:02:56.777Z,92.53
2023-03-07T05:05:24.501Z,93.66
2023-03-07T05:07:51.728Z,95.42
2023-03-07T05:10:19.429Z,96.34
2023-03-07T05:12:46.919Z,99.03
2023-03-07T05:15:14.179Z,100.00
2023-03-07T05:17:41.624Z,100.00
2023-03-07T05:20:11.257Z,100.00
2023-03-07T05:22:38.294Z,100.00
2023-03-07T05:25:07.035Z,100.00
2023-03-07T05:27:35.552Z,100.00
2023-03-07T05:30:03.062Z,100.00
2023-03-07T05:32:30.783Z,100.00
2023-03-07T05:34:58.749Z,100.00
2023-03-07T05:37:26.089Z,100.00
2023-03-07T05:39:54.025Z,100.00
2023-03-07T05:42:21.331Z,100.00
2023-03-07T05:44:49.407Z,100.00
2023-03-07T05:47:16.766Z,100.00
2023-03-07T05:49:44.514Z,100.00
2023-03-07T05:52:13.607Z,100.00
2023-03-07T05:54:41.277Z,100.00
2023-03-07T05:57:09.155Z,100.00
2023-03-07T05:59:36.641Z,100.00
2023-03-07T06:02:03.979Z,100.00
2023-03-07T06:04:31.265Z,100.00
2023-03-07T06:06:59.842Z,100.00
2023-03-07T06:09:28.353Z,100.00
2023-03-07T06:11:58.112Z,100.00
2023-03-07T06:14:28.441Z,100.00
2023-03-07T06:16:55.626Z,100.00
2023-03-07T06:19:23.155Z,100.00
2023-03-07T06:21:51.932Z,100.00
2023-03-07T06:24:20.033Z,100.00
2023-03-07T06:26:47.852Z,100.00
2023-03-07T06:29:16.220Z,100.00
2023-03-07T06:31:43.562Z,100.00
2023-03-07T06:34:11.448Z,100.00
2023-03-07T06:36:40.483Z,100.00
2023-03-07T06:39:07.909Z,100.00
2023-03-07T06:41:36.093Z,100.00
2023-03-07T06:44:04.753Z,100.00
2023-03-07T06:46:33.288Z,100.00
2023-03-07T06:49:05.548Z,100.00
2023-03-07T06:51:34.180Z,100.00
2023-03-07T06:54:02.811Z,100.00
2023-03-07T06:56:31.456Z,100.00
2023-03-07T06:58:59.625Z,100.00
2023-03-07T07:01:26.764Z,100.00
2023-03-07T07:03:57.143Z,100.00
2023-03-07T07:06:25.401Z,100.00
2023-03-07T07:08:57.647Z,100.00
2023-03-07T07:11:29.098Z,100.00
2023-03-07T07:13:57.051Z,100.00
2023-03-07T07:16:24.733Z,100.00
2023-03-07T07:18:52.714Z,100.00
2023-03-07T07:21:20.529Z,100.00
2023-03-07T07:23:48.312Z,100.00
2023-03-07T07:26:15.754Z,100.00
2023-03-07T07:28:46.038Z,100.00
2023-03-07T07:31:13.855Z,100.00
2023-03-07T07:33:41.174Z,100.00
2023-03-07T07:36:09.772Z,100.00
2023-03-07T07:38:37.523Z,100.00
2023-03-07T07:41:05.217Z,100.00
2023-03-07T07:43:33.496Z,100.00
2023-03-07T07:46:10.760Z,100.00
2023-03-07T07:48:38.766Z,100.00
2023-03-07T07:51:06.724Z,98.28
2023-03-07T07:53:36.912Z,95.78
2023-03-07T07:56:04.848Z,94.33
2023-03-07T07:58:32.272Z,93.71
2023-03-07T08:01:01.453Z,93.07
2023-03-07T08:03:29.113Z,92.41
2023-03-07T08:05:56.642Z,90.98
2023-03-07T08:08:24.058Z,89.08
2023-03-07T08:10:51.142Z,87.29
2023-03-07T08:13:18.683Z,86.11
2023-03-07T08:15:46.019Z,84.10
2023-03-07T08:18:16.184Z,80.61
2023-03-07T08:20:43.577Z,78.82
2023-03-07T08:23:10.837Z,77.38
2023-03-07T08:25:38.771Z,77.71
2023-03-07T08:28:05.955Z,76.29
2023-03-07T08:30:36.334Z,75.37
2023-03-07T08:33:04.060Z,76.87
2023-03-07T08:35:31.802Z,75.10
2023-03-07T08:38:00.808Z,78.47
2023-03-07T08:40:31.625Z,70.18
2023-03-07T08:43:00.032Z,70.04
2023-03-07T08:45:27.443Z,69.42
2023-03-07T08:47:55.989Z,62.67
2023-03-07T08:50:25.987Z,64.24
2023-03-07T08:52:53.447Z,62.64
2023-03-07T08:55:23.008Z,62.16
2023-03-07T08:57:50.249Z,60.18
2023-03-07T09:00:18.115Z,61.37
2023-03-07T09:02:46.543Z,61.89
2023-03-07T09:05:13.964Z,62.93
2023-03-07T09:07:41.514Z,64.52
2023-03-07T09:10:12.008Z,65.99
2023-03-07T09:12:39.204Z,66.18
2023-03-07T09:15:07.175Z,67.02
2023-03-07T09:17:34.537Z,64.46
2023-03-07T09:20:01.936Z,64.00
2023-03-07T09:22:29.083Z,64.90
2023-03-07T09:24:56.612Z,64.75
2023-03-07T09:27:24.219Z,65.17
2023-03-07T09:29:51.630Z,62.39
2023-03-07T09:32:19.053Z,61.13
2023-03-07T09:34:46.420Z,59.19
2023-03-07T09:37:14.144Z,54.51
2023-03-07T09:39:41.421Z,54.14
2023-03-07T09:42:19.310Z,52.26
2023-03-07T09:45:15.462Z,51.59
2023-03-07T09:48:28.385Z,51.79
2023-03-07T09:51:25.487Z,51.54
2023-03-07T09:54:01.160Z,51.72
2023-03-07T09:56:36.226Z,53.63
2023-03-07T09:59:22.797Z,53.71
2023-03-07T10:02:06.661Z,53.56
2023-03-07T10:04:55.254Z,52.21
2023-03-07T10:07:27.138Z,54.78
2023-03-07T10:10:00.671Z,51.79
2023-03-07T10:12:43.115Z,48.91
2023-03-07T10:15:14.902Z,50.22
2023-03-07T10:18:06.152Z,45.47
2023-03-07T10:20:41.158Z,46.62
2023-03-07T10:23:29.403Z,44.46
2023-03-07T10:26:13.113Z,45.88
2023-03-07T10:28:43.221Z,46.41
2023-03-07T10:31:29.070Z,46.57
2023-03-07T10:33:56.791Z,45.88
2023-03-07T10:36:44.199Z,46.87
2023-03-07T10:39:45.410Z,48.37
2023-03-07T10:42:15.394Z,50.54
2023-03-07T10:44:45.726Z,50.05
2023-03-07T10:47:28.138Z,51.04
2023-03-07T10:50:03.143Z,50.89
2023-03-07T10:52:42.053Z,51.12
2023-03-07T10:55:32.960Z,52.05
2023-03-07T10:58:24.789Z,53.13
2023-03-07T11:01:02.591Z,51.26
2023-03-07T11:03:51.493Z,49.74
2023-03-07T11:06:51.282Z,46.09
2023-03-07T11:09:24.671Z,38.76
2023-03-07T11:12:00.827Z,34.67
2023-03-07T11:14:29.400Z,32.37
2023-03-07T11:17:02.614Z,33.58
2023-03-07T11:19:45.092Z,31.54
2023-03-07T11:22:27.252Z,30.68
2023-03-07T11:24:57.445Z,30.70
2023-03-07T11:27:38.028Z,31.28
2023-03-07T11:30:28.414Z,32.66
2023-03-07T11:33:25.420Z,33.65
2023-03-07T11:36:15.828Z,35.44
2023-03-07T11:39:15.389Z,35.24
2023-03-07T11:41:48.092Z,35.52
2023-03-07T11:44:33.620Z,36.33
2023-03-07T11:47:06.073Z,36.51
2023-03-07T11:49:36.006Z,37.31
2023-03-07T11:52:38.953Z,38.26
2023-03-07T11:55:36.139Z,39.01
2023-03-07T11:58:12.319Z,39.10
2023-03-07T12:01:04.517Z,39.27
2023-03-07T12:03:46.905Z,40.32
2023-03-07T12:06:29.366Z,40.87
2023-03-07T12:09:18.682Z,41.14
2023-03-07T12:12:17.557Z,41.74
2023-03-07T12:15:00.383Z,42.08
2023-03-07T12:17:54.258Z,43.18
2023-03-07T12:20:31.338Z,44.43
2023-03-07T12:23:08.513Z,42.08
2023-03-07T12:25:39.344Z,43.46
2023-03-07T12:28:17.118Z,39.19
2023-03-07T12:31:15.484Z,38.73
2023-03-07T12:34:04.666Z,38.74
2023-03-07T12:36:34.760Z,38.44
2023-03-07T12:39:12.854Z,38.52
2023-03-07T12:41:43.048Z,38.56
2023-03-07T12:44:36.583Z,39.42
2023-03-07T12:47:30.958Z,40.09
2023-03-07T12:50:29.187Z,40.84
2023-03-07T12:53:05.110Z,41.17
2023-03-07T12:55:54.895Z,40.81
2023-03-07T12:58:42.729Z,41.24
2023-03-07T13:01:35.305Z,43.13
2023-03-07T13:04:23.371Z,42.83
2023-03-07T13:06:52.233Z,42.74
2023-03-07T13:09:25.598Z,42.40
2023-03-07T13:12:20.322Z,42.67
2023-03-07T13:15:19.776Z,41.77
2023-03-07T13:17:47.016Z,42.42
2023-03-07T13:20:20.631Z,41.93
2023-03-07T13:22:48.336Z,43.92
2023-03-07T13:25:37.236Z,45.00
2023-03-07T13:28:26.902Z,42.88
2023-03-07T13:31:15.407Z,44.19
2023-03-07T13:33:43.265Z,43.91
2023-03-07T13:36:39.100Z,44.43
2023-03-07T13:39:57.487Z,44.23
2023-03-07T13:42:47.613Z,43.10
2023-03-07T13:45:37.762Z,44.15
2023-03-07T13:48:11.757Z,44.29
2023-03-07T13:50:50.993Z,44.63
2023-03-07T13:53:30.434Z,45.15
2023-03-07T13:56:02.990Z,45.75
2023-03-07T13:59:03.446Z,46.35
2023-03-07T14:01:40.860Z,46.04
2023-03-07T14:04:40.721Z,46.48
2023-03-07T14:07:25.378Z,46.21
2023-03-07T14:09:56.560Z,47.74
2023-03-07T14:12:58.370Z,47.72
2023-03-07T14:15:43.923Z,47.55
2023-03-07T14:18:26.405Z,48.65
2023-03-07T14:21:18.865Z,48.86
2023-03-07T14:24:28.046Z,48.94
2023-03-07T14:27:03.177Z,48.88
2023-03-07T14:29:31.311Z,49.73
2023-03-07T14:32:01.168Z,49.20
2023-03-07T14:34:36.374Z,49.52
2023-03-07T14:37:12.487Z,49.55
2023-03-07T14:40:17.168Z,50.05
2023-03-07T14:43:22.479Z,50.41
2023-03-07T14:46:05.826Z,51.02
2023-03-07T14:48:54.824Z,50.97
2023-03-07T14:51:26.345Z,51.63
2023-03-07T14:53:55.727Z,50.74
2023-03-07T14:56:24.438Z,50.67
2023-03-07T14:58:54.674Z,50.95
2023-03-07T15:01:22.677Z,51.44
2023-03-07T15:03:52.383Z,51.59
2023-03-07T15:06:25.427Z,52.35
2023-03-07T15:08:56.511Z,52.61
2023-03-07T15:11:33.808Z,52.50
2023-03-07T15:14:11.805Z,52.77
2023-03-07T15:16:50.759Z,53.06
2023-03-07T15:19:30.514Z,53.70
2023-03-07T15:22:04.540Z,53.62
2023-03-07T15:24:36.341Z,54.00
2023-03-07T15:27:06.262Z,55.02
2023-03-07T15:29:34.500Z,55.19
2023-03-07T15:32:07.512Z,56.03
2023-03-07T15:34:36.342Z,56.10
2023-03-07T15:37:22.732Z,57.37
2023-03-07T15:40:01.685Z,57.86
2023-03-07T15:42:30.642Z,59.35
2023-03-07T15:45:00.293Z,59.68
2023-03-07T15:47:30.550Z,60.89
2023-03-07T15:50:01.775Z,61.55
2023-03-07T15:52:33.292Z,62.40
2023-03-07T15:55:06.220Z,63.94
2023-03-07T15:57:51.005Z,64.18
2023-03-07T16:00:26.351Z,64.68
2023-03-07T16:02:54.211Z,64.75
2023-03-07T16:05:25.166Z,65.04
2023-03-07T16:07:55.958Z,65.68
2023-03-07T16:10:28.170Z,66.28
2023-03-07T16:12:56.242Z,65.89
2023-03-07T16:15:24.894Z,69.22
2023-03-07T16:17:56.451Z,69.32
2023-03-07T16:20:29.097Z,67.59
2023-03-07T16:22:57.092Z,67.19
2023-03-07T16:25:27.964Z,66.86
2023-03-07T16:27:57.410Z,78.16
2023-03-07T16:30:30.392Z,78.34
2023-03-07T16:32:57.479Z,73.62
2023-03-07T16:35:27.849Z,77.08
2023-03-07T16:37:55.836Z,79.89
2023-03-07T16:40:26.244Z,82.41
2023-03-07T16:42:53.644Z,80.41
2023-03-07T16:45:32.035Z,78.96
2023-03-07T16:48:02.576Z,77.99
2023-03-07T16:50:33.645Z,78.13
2023-03-07T16:53:01.035Z,78.57
2023-03-07T16:55:28.735Z,78.39
2023-03-07T16:58:00.945Z,78.89
2023-03-07T17:00:28.930Z,79.18
2023-03-07T17:03:02.281Z,78.14
2023-03-07T17:05:30.666Z,77.89
2023-03-07T17:07:59.450Z,77.45
2023-03-07T17:10:27.130Z,77.15
2023-03-07T17:12:59.467Z,76.88
2023-03-07T17:15:31.057Z,76.58
2023-03-07T17:17:59.654Z,76.52
2023-03-07T17:20:28.024Z,75.67
2023-03-07T17:22:55.559Z,76.18
2023-03-07T17:25:23.875Z,75.28
2023-03-07T17:28:15.907Z,76.46
2023-03-07T17:30:45.880Z,75.44
2023-03-07T17:33:15.112Z,74.85
2023-03-07T17:35:42.714Z,74.60
2023-03-07T17:38:10.242Z,74.27
2023-03-07T17:40:38.801Z,74.01
2023-03-07T17:43:08.390Z,74.17
2023-03-07T17:45:36.053Z,73.65
2023-03-07T17:48:03.588Z,77.09
2023-03-07T17:50:30.837Z,76.75
2023-03-07T17:52:58.718Z,76.07
2023-03-07T17:55:26.300Z,76.47
2023-03-07T17:57:53.942Z,75.62
2023-03-07T18:00:22.061Z,75.43
2023-03-07T18:02:49.832Z,75.38
2023-03-07T18:05:19.562Z,74.35
2023-03-07T18:07:47.521Z,75.38
2023-03-07T18:10:14.646Z,74.98
2023-03-07T18:12:42.726Z,75.06
2023-03-07T18:15:14.815Z,74.74
2023-03-07T18:17:48.355Z,74.96
2023-03-07T18:20:19.532Z,75.16
2023-03-07T18:22:46.981Z,74.25
2023-03-07T18:25:16.216Z,74.61
2023-03-07T18:27:43.996Z,74.48
2023-03-07T18:30:12.653Z,74.72
2023-03-07T18:32:39.917Z,75.32
2023-03-07T18:35:08.049Z,75.67
2023-03-07T18:37:36.864Z,76.66
2023-03-07T18:40:06.572Z,76.15
2023-03-07T18:42:39.512Z,77.83
2023-03-07T18:45:07.962Z,78.29
2023-03-07T18:47:35.172Z,78.19
2023-03-07T18:50:02.474Z,78.46
2023-03-07T18:52:30.311Z,78.91
2023-03-07T18:54:57.711Z,82.80
2023-03-07T18:57:25.122Z,81.34
2023-03-07T18:59:52.668Z,80.83
2023-03-07T19:02:20.119Z,80.52
2023-03-07T19:04:47.492Z,83.19
2023-03-07T19:07:15.163Z,85.37
2023-03-07T19:09:48.429Z,85.43
2023-03-07T19:12:15.768Z,86.09
2023-03-07T19:14:43.057Z,84.39
2023-03-07T19:17:10.846Z,84.09
2023-03-07T19:19:38.248Z,85.20
2023-03-07T19:22:06.049Z,86.23
2023-03-07T19:24:33.494Z,85.66
2023-03-07T19:27:01.188Z,84.12
2023-03-07T19:29:28.702Z,84.75
2023-03-07T19:31:56.972Z,84.73
2023-03-07T19:34:24.035Z,85.00
2023-03-07T19:36:52.138Z,85.22
2023-03-07T19:39:20.725Z,87.11
2023-03-07T19:41:48.425Z,88.98
2023-03-07T19:44:16.847Z,88.85
2023-03-07T19:46:46.783Z,92.09
2023-03-07T19:49:16.109Z,94.15
2023-03-07T19:51:46.008Z,92.59
2023-03-07T19:54:14.602Z,90.73
2023-03-07T19:56:44.679Z,91.98
2023-03-07T19:59:12.908Z,92.96
2023-03-07T20:01:40.829Z,93.31
2023-03-07T20:04:10.650Z,95.07
2023-03-07T20:06:39.550Z,96.45
2023-03-07T20:09:07.201Z,96.48
2023-03-07T20:11:39.747Z,97.50
2023-03-07T20:14:07.626Z,98.29
2023-03-07T20:16:35.057Z,97.82
2023-03-07T20:19:05.541Z,97.80
2023-03-07T20:21:33.843Z,97.08
2023-03-07T20:24:01.840Z,96.00
2023-03-07T20:26:35.164Z,96.28
2023-03-07T20:29:04.318Z,97.41
2023-03-07T20:31:32.818Z,97.30
2023-03-07T20:34:01.839Z,96.88
2023-03-07T20:36:33.053Z,95.92
2023-03-07T20:39:02.441Z,95.49
2023-03-07T20:41:32.414Z,95.17
2023-03-07T20:44:02.683Z,94.95
2023-03-07T20:46:31.372Z,94.78
2023-03-07T20:49:00.955Z,95.39
2023-03-07T20:51:31.414Z,95.47
2023-03-07T20:54:00.325Z,94.46
2023-03-07T20:56:29.788Z,94.34
2023-03-07T20:58:58.038Z,94.88
2023-03-07T21:01:30.700Z,95.70
2023-03-07T21:04:15.410Z,95.83
2023-03-07T21:06:44.440Z,94.88
2023-03-07T21:09:15.632Z,94.74
2023-03-07T21:11:45.496Z,95.51
2023-03-07T21:14:17.528Z,95.47
2023-03-07T21:16:48.445Z,96.39
2023-03-07T21:19:16.265Z,96.18
2023-03-07T21:21:43.873Z,96.71
2023-03-07T21:24:12.948Z,98.03
2023-03-07T21:26:40.580Z,98.35
2023-03-07T21:29:09.822Z,99.85
2023-03-07T21:31:37.616Z,100.00
2023-03-07T21:34:08.193Z,100.00
2023-03-07T21:36:35.688Z,100.00
2023-03-07T21:39:08.269Z,100.00
2023-03-07T21:41:36.779Z,100.00
2023-03-07T21:44:03.928Z,100.00
2023-03-07T21:46:31.496Z,100.00
2023-03-07T21:48:59.959Z,100.00
2023-03-07T21:51:27.460Z,100.00
2023-03-07T21:53:54.754Z,100.00
2023-03-07T21:56:24.053Z,100.00
2023-03-07T21:58:52.167Z,100.00
2023-03-07T22:01:26.327Z,100.00
2023-03-07T22:03:55.929Z,100.00
2023-03-07T22:06:23.787Z,100.00
2023-03-07T22:08:50.938Z,100.00
2023-03-07T22:11:17.966Z,100.00
2023-03-07T22:13:45.790Z,100.00
2023-03-07T22:16:18.245Z,100.00
2023-03-07T22:18:45.729Z,100.00
2023-03-07T22:21:15.261Z,100.00
2023-03-07T22:23:43.092Z,100.00
2023-03-07T22:26:12.472Z,100.00
2023-03-07T22:28:43.365Z,100.00
2023-03-07T22:31:12.888Z,100.00
2023-03-07T22:33:41.692Z,100.00
2023-03-07T22:36:13.002Z,100.00
2023-03-07T22:38:41.938Z,100.00
2023-03-07T22:41:15.710Z,100.00
2023-03-07T22:43:43.455Z,100.00
2023-03-07T22:46:11.433Z,100.00
2023-03-07T22:48:39.388Z,100.00
2023-03-07T22:51:17.859Z,100.00
2023-03-07T22:53:45.684Z,100.00
2023-03-07T22:56:16.570Z,100.00
2023-03-07T22:58:44.083Z,100.00
2023-03-07T23:01:14.795Z,100.00
2023-03-07T23:03:42.640Z,100.00
2023-03-07T23:06:10.173Z,100.00
2023-03-07T23:08:37.345Z,100.00
2023-03-07T23:11:09.238Z,100.00
2023-03-07T23:13:37.025Z,100.00
2023-03-07T23:16:10.270Z,100.00
2023-03-07T23:18:38.357Z,100.00
2023-03-07T23:21:07.410Z,100.00
2023-03-07T23:23:35.010Z,100.00
2023-03-07T23:26:02.592Z,100.00
2023-03-07T23:28:30.148Z,100.00
2023-03-07T23:30:57.640Z,100.00
2023-03-07T23:33:25.244Z,100.00
2023-03-07T23:35:52.747Z,100.00
2023-03-07T23:38:20.977Z,100.00
2023-03-07T23:40:48.401Z,100.00
2023-03-07T23:43:15.679Z,100.00
2023-03-07T23:45:42.924Z,100.00
2023-03-07T23:48:13.765Z,100.00
2023-03-07T23:50:41.212Z,100.00
2023-03-07T23:53:08.550Z,100.00
2023-03-07T23:55:36.116Z,100.00
2023-03-07T23:58:05.429Z,100.00
